sensor_id;sensor_type;location;lat;lon;timestamp;temperature;humidity
44170;DHT22;29836;52.286;9.576;2024-03-07T00:00:10;0.20;99.90
44170;DHT22;29836;52.286;9.576;2024-03-07T00:02:49;0.20;99.90
44170;DHT22;29836;52.286;9.576;2024-03-07T00:05:16;0.10;99.90
44170;DHT22;29836;52.286;9.576;2024-03-07T00:07:42;0.10;99.90
44170;DHT22;29836;52.286;9.576;2024-03-07T00:10:09;0.10;99.90
44170;DHT22;29836;52.286;9.576;2024-03-07T00:12:35;0.10;99.90
44170;DHT22;29836;52.286;9.576;2024-03-07T00:15:05;0.10;99.90
44170;DHT22;29836;52.286;9.576;2024-03-07T00:17:31;0.10;99.90
44170;DHT22;29836;52.286;9.576;2024-03-07T00:19:56;0.10;99.90
44170;DHT22;29836;52.286;9.576;2024-03-07T00:22:23;0.00;99.90
44170;DHT22;29836;52.286;9.576;2024-03-07T00:24:48;-0.10;99.90
44170;DHT22;29836;52.286;9.576;2024-03-07T00:27:14;0.00;99.90
44170;DHT22;29836;52.286;9.576;2024-03-07T00:29:40;-0.10;99.90
44170;DHT22;29836;52.286;9.576;2024-03-07T00:32:06;-0.10;99.90
44170;DHT22;29836;52.286;9.576;2024-03-07T00:34:31;-0.20;99.90
44170;DHT22;29836;52.286;9.576;2024-03-07T00:36:57;-0.10;99.90
44170;DHT22;29836;52.286;9.576;2024-03-07T00:39:24;-0.20;99.90
44170;DHT22;29836;52.286;9.576;2024-03-07T00:41:50;-0.20;99.90
44170;DHT22;29836;52.286;9.576;2024-03-07T00:44:16;-0.20;99.90
44170;DHT22;29836;52.286;9.576;2024-03-07T00:46:41;-0.30;99.90
44170;DHT22;29836;52.286;9.576;2024-03-07T00:49:07;-0.40;99.90
44170;DHT22;29836;52.286;9.576;2024-03-07T00:51:32;-0.30;99.90
44170;DHT22;29836;52.286;9.576;2024-03-07T00:53:58;-0.30;99.90
44170;DHT22;29836;52.286;9.576;2024-03-07T00:56:24;-0.40;99.90
44170;DHT22;29836;52.286;9.576;2024-03-07T00:58:50;-0.50;99.90
44170;DHT22;29836;52.286;9.576;2024-03-07T01:01:16;-0.60;99.90
44170;DHT22;29836;52.286;9.576;2024-03-07T01:03:43;-0.70;99.90
44170;DHT22;29836;52.286;9.576;2024-03-07T01:06:08;-0.70;99.90
44170;DHT22;29836;52.286;9.576;2024-03-07T01:08:37;-0.70;99.90
44170;DHT22;29836;52.286;9.576;2024-03-07T01:11:04;-0.80;99.90
44170;DHT22;29836;52.286;9.576;2024-03-07T01:13:36;-0.90;99.90
44170;DHT22;29836;52.286;9.576;2024-03-07T01:16:02;-1.00;99.90
44170;DHT22;29836;52.286;9.576;2024-03-07T01:18:28;-0.90;99.90
44170;DHT22;29836;52.286;9.576;2024-03-07T01:20:53;-1.00;99.90
44170;DHT22;29836;52.286;9.576;2024-03-07T01:23:20;-1.00;99.90
44170;DHT22;29836;52.286;9.576;2024-03-07T01:25:45;-1.10;99.90
44170;DHT22;29836;52.286;9.576;2024-03-07T01:28:11;-1.10;99.90
44170;DHT22;29836;52.286;9.576;2024-03-07T01:30:39;-1.10;99.90
44170;DHT22;29836;52.286;9.576;2024-03-07T01:33:04;-1.20;99.90
44170;DHT22;29836;52.286;9.576;2024-03-07T01:35:30;-1.30;99.90
44170;DHT22;29836;52.286;9.576;2024-03-07T01:37:56;-1.30;99.90
44170;DHT22;29836;52.286;9.576;2024-03-07T01:40:22;-1.40;99.90
44170;DHT22;29836;52.286;9.576;2024-03-07T01:42:50;-1.20;99.90
44170;DHT22;29836;52.286;9.576;2024-03-07T01:45:16;-1.10;99.90
44170;DHT22;29836;52.286;9.576;2024-03-07T01:47:45;-1.00;99.90
44170;DHT22;29836;52.286;9.576;2024-03-07T01:50:11;-1.00;99.90
44170;DHT22;29836;52.286;9.576;2024-03-07T01:52:38;-0.90;99.90
44170;DHT22;29836;52.286;9.576;2024-03-07T01:55:05;-1.00;99.90
44170;DHT22;29836;52.286;9.576;2024-03-07T01:57:31;-0.90;99.90
44170;DHT22;29836;52.286;9.576;2024-03-07T01:59:57;-0.90;99.90
44170;DHT22;29836;52.286;9.576;2024-03-07T02:02:22;-0.90;99.90
44170;DHT22;29836;52.286;9.576;2024-03-07T02:04:48;-0.90;99.90
44170;DHT22;29836;52.286;9.576;2024-03-07T02:07:13;-0.90;99.90
44170;DHT22;29836;52.286;9.576;2024-03-07T02:09:39;-1.00;99.90
44170;DHT22;29836;52.286;9.576;2024-03-07T02:12:05;-1.00;99.90
44170;DHT22;29836;52.286;9.576;2024-03-07T02:14:30;-1.10;99.90
44170;DHT22;29836;52.286;9.576;2024-03-07T02:16:56;-1.10;99.90
44170;DHT22;29836;52.286;9.576;2024-03-07T02:19:22;-1.20;99.90
44170;DHT22;29836;52.286;9.576;2024-03-07T02:21:48;-1.20;99.90
44170;DHT22;29836;52.286;9.576;2024-03-07T02:24:14;-1.30;99.90
44170;DHT22;29836;52.286;9.576;2024-03-07T02:26:40;-1.30;99.90
44170;DHT22;29836;52.286;9.576;2024-03-07T02:29:06;-1.20;99.90
44170;DHT22;29836;52.286;9.576;2024-03-07T02:31:31;-1.20;99.90
44170;DHT22;29836;52.286;9.576;2024-03-07T02:34:03;-1.10;99.90
44170;DHT22;29836;52.286;9.576;2024-03-07T02:36:29;-1.20;99.90
44170;DHT22;29836;52.286;9.576;2024-03-07T02:38:55;-1.20;99.90
44170;DHT22;29836;52.286;9.576;2024-03-07T02:41:20;-1.20;99.90
44170;DHT22;29836;52.286;9.576;2024-03-07T02:43:46;-1.30;99.90
44170;DHT22;29836;52.286;9.576;2024-03-07T02:46:11;-1.40;99.90
44170;DHT22;29836;52.286;9.576;2024-03-07T02:48:38;-1.40;99.90
44170;DHT22;29836;52.286;9.576;2024-03-07T02:51:04;-1.50;99.90
44170;DHT22;29836;52.286;9.576;2024-03-07T02:53:31;-1.50;99.90
44170;DHT22;29836;52.286;9.576;2024-03-07T02:55:57;-1.60;99.90
44170;DHT22;29836;52.286;9.576;2024-03-07T02:58:23;-1.70;99.90
44170;DHT22;29836;52.286;9.576;2024-03-07T03:00:57;-1.70;99.90
44170;DHT22;29836;52.286;9.576;2024-03-07T03:03:23;-1.80;99.90
44170;DHT22;29836;52.286;9.576;2024-03-07T03:05:49;-1.80;99.90
44170;DHT22;29836;52.286;9.576;2024-03-07T03:08:14;-1.80;99.90
44170;DHT22;29836;52.286;9.576;2024-03-07T03:10:40;-1.70;99.90
44170;DHT22;29836;52.286;9.576;2024-03-07T03:13:06;-1.70;99.90
44170;DHT22;29836;52.286;9.576;2024-03-07T03:15:32;-1.80;99.90
44170;DHT22;29836;52.286;9.576;2024-03-07T03:17:57;-1.80;99.90
44170;DHT22;29836;52.286;9.576;2024-03-07T03:20:26;-1.90;99.90
44170;DHT22;29836;52.286;9.576;2024-03-07T03:22:59;-1.90;99.90
44170;DHT22;29836;52.286;9.576;2024-03-07T03:25:25;-1.90;99.90
44170;DHT22;29836;52.286;9.576;2024-03-07T03:27:51;-1.80;99.90
44170;DHT22;29836;52.286;9.576;2024-03-07T03:30:17;-1.80;99.90
44170;DHT22;29836;52.286;9.576;2024-03-07T03:32:47;-1.90;99.90
44170;DHT22;29836;52.286;9.576;2024-03-07T03:35:16;-1.90;99.90
44170;DHT22;29836;52.286;9.576;2024-03-07T03:37:45;-1.80;99.90
44170;DHT22;29836;52.286;9.576;2024-03-07T03:40:11;-1.80;99.90
44170;DHT22;29836;52.286;9.576;2024-03-07T03:42:37;-1.80;99.90
44170;DHT22;29836;52.286;9.576;2024-03-07T03:45:04;-1.80;99.90
44170;DHT22;29836;52.286;9.576;2024-03-07T03:47:33;-1.80;99.90
44170;DHT22;29836;52.286;9.576;2024-03-07T03:49:59;-1.80;99.90
44170;DHT22;29836;52.286;9.576;2024-03-07T03:52:24;-1.80;99.90
44170;DHT22;29836;52.286;9.576;2024-03-07T03:54:51;-1.80;99.90
44170;DHT22;29836;52.286;9.576;2024-03-07T03:57:17;-1.80;99.90
44170;DHT22;29836;52.286;9.576;2024-03-07T03:59:43;-1.80;99.90
44170;DHT22;29836;52.286;9.576;2024-03-07T04:02:10;-1.80;99.90
44170;DHT22;29836;52.286;9.576;2024-03-07T04:04:39;-1.90;99.90
44170;DHT22;29836;52.286;9.576;2024-03-07T04:07:04;-1.80;99.90
44170;DHT22;29836;52.286;9.576;2024-03-07T04:09:30;-1.90;99.90
44170;DHT22;29836;52.286;9.576;2024-03-07T04:11:56;-1.80;99.90
44170;DHT22;29836;52.286;9.576;2024-03-07T04:14:23;-1.80;99.90
44170;DHT22;29836;52.286;9.576;2024-03-07T04:16:48;-1.70;99.90
44170;DHT22;29836;52.286;9.576;2024-03-07T04:19:14;-1.60;99.90
44170;DHT22;29836;52.286;9.576;2024-03-07T04:21:39;-1.60;99.90
44170;DHT22;29836;52.286;9.576;2024-03-07T04:24:05;-1.50;99.90
44170;DHT22;29836;52.286;9.576;2024-03-07T04:26:31;-1.50;99.90
44170;DHT22;29836;52.286;9.576;2024-03-07T04:28:57;-1.40;99.90
44170;DHT22;29836;52.286;9.576;2024-03-07T04:31:23;-1.20;99.90
44170;DHT22;29836;52.286;9.576;2024-03-07T04:33:49;-1.00;99.90
44170;DHT22;29836;52.286;9.576;2024-03-07T04:36:16;-0.80;99.90
44170;DHT22;29836;52.286;9.576;2024-03-07T04:38:42;-0.70;99.90
44170;DHT22;29836;52.286;9.576;2024-03-07T04:41:11;-0.50;99.90
44170;DHT22;29836;52.286;9.576;2024-03-07T04:43:36;-0.40;99.90
44170;DHT22;29836;52.286;9.576;2024-03-07T04:46:02;-0.30;99.90
44170;DHT22;29836;52.286;9.576;2024-03-07T04:48:28;-0.20;99.90
44170;DHT22;29836;52.286;9.576;2024-03-07T04:50:54;-0.10;99.90
44170;DHT22;29836;52.286;9.576;2024-03-07T04:53:19;0.00;99.90
44170;DHT22;29836;52.286;9.576;2024-03-07T04:55:45;0.10;99.90
44170;DHT22;29836;52.286;9.576;2024-03-07T04:58:10;0.10;99.90
44170;DHT22;29836;52.286;9.576;2024-03-07T05:00:36;0.10;99.90
44170;DHT22;29836;52.286;9.576;2024-03-07T05:03:01;0.10;99.90
44170;DHT22;29836;52.286;9.576;2024-03-07T05:05:27;0.20;99.90
44170;DHT22;29836;52.286;9.576;2024-03-07T05:07:53;0.20;99.90
44170;DHT22;29836;52.286;9.576;2024-03-07T05:10:21;0.20;99.90
44170;DHT22;29836;52.286;9.576;2024-03-07T05:12:46;0.20;99.90
44170;DHT22;29836;52.286;9.576;2024-03-07T05:15:12;0.20;99.90
44170;DHT22;29836;52.286;9.576;2024-03-07T05:17:37;0.30;99.90
44170;DHT22;29836;52.286;9.576;2024-03-07T05:20:05;0.30;99.90
44170;DHT22;29836;52.286;9.576;2024-03-07T05:22:41;0.30;99.90
44170;DHT22;29836;52.286;9.576;2024-03-07T05:25:12;0.20;99.90
44170;DHT22;29836;52.286;9.576;2024-03-07T05:27:38;0.20;99.90
44170;DHT22;29836;52.286;9.576;2024-03-07T05:30:05;0.30;99.90
44170;DHT22;29836;52.286;9.576;2024-03-07T05:32:31;0.30;99.90
44170;DHT22;29836;52.286;9.576;2024-03-07T05:34:59;0.40;99.90
44170;DHT22;29836;52.286;9.576;2024-03-07T05:37:24;0.30;99.90
44170;DHT22;29836;52.286;9.576;2024-03-07T05:39:51;0.30;99.90
44170;DHT22;29836;52.286;9.576;2024-03-07T05:42:16;0.40;99.90
44170;DHT22;29836;52.286;9.576;2024-03-07T05:44:42;0.40;99.90
44170;DHT22;29836;52.286;9.576;2024-03-07T05:47:08;0.40;99.90
44170;DHT22;29836;52.286;9.576;2024-03-07T05:49:34;0.40;99.90
44170;DHT22;29836;52.286;9.576;2024-03-07T05:52:00;0.50;99.90
44170;DHT22;29836;52.286;9.576;2024-03-07T05:54:25;0.50;99.90
44170;DHT22;29836;52.286;9.576;2024-03-07T05:56:51;0.40;99.90
44170;DHT22;29836;52.286;9.576;2024-03-07T05:59:16;0.50;99.90
44170;DHT22;29836;52.286;9.576;2024-03-07T06:01:42;0.50;99.90
44170;DHT22;29836;52.286;9.576;2024-03-07T06:04:09;0.50;99.90
44170;DHT22;29836;52.286;9.576;2024-03-07T06:06:36;0.50;99.90
44170;DHT22;29836;52.286;9.576;2024-03-07T06:09:07;0.50;99.90
44170;DHT22;29836;52.286;9.576;2024-03-07T06:11:37;0.50;99.90
44170;DHT22;29836;52.286;9.576;2024-03-07T06:14:03;0.50;99.90
44170;DHT22;29836;52.286;9.576;2024-03-07T06:16:35;0.60;99.90
44170;DHT22;29836;52.286;9.576;2024-03-07T06:19:01;0.60;99.90
44170;DHT22;29836;52.286;9.576;2024-03-07T06:21:27;0.60;99.90
44170;DHT22;29836;52.286;9.576;2024-03-07T06:23:53;0.50;99.90
44170;DHT22;29836;52.286;9.576;2024-03-07T06:26:35;0.50;99.90
44170;DHT22;29836;52.286;9.576;2024-03-07T06:29:07;0.50;99.90
44170;DHT22;29836;52.286;9.576;2024-03-07T06:31:39;0.60;99.90
44170;DHT22;29836;52.286;9.576;2024-03-07T06:34:06;0.60;99.90
44170;DHT22;29836;52.286;9.576;2024-03-07T06:36:32;0.60;99.90
44170;DHT22;29836;52.286;9.576;2024-03-07T06:38:58;0.60;99.90
44170;DHT22;29836;52.286;9.576;2024-03-07T06:41:23;0.60;99.90
44170;DHT22;29836;52.286;9.576;2024-03-07T06:43:50;0.60;99.90
44170;DHT22;29836;52.286;9.576;2024-03-07T06:46:16;0.60;99.90
44170;DHT22;29836;52.286;9.576;2024-03-07T06:48:44;0.70;99.90
44170;DHT22;29836;52.286;9.576;2024-03-07T06:51:09;0.80;99.90
44170;DHT22;29836;52.286;9.576;2024-03-07T06:53:36;0.80;99.90
44170;DHT22;29836;52.286;9.576;2024-03-07T06:56:01;0.80;99.90
44170;DHT22;29836;52.286;9.576;2024-03-07T06:58:27;0.90;99.90
44170;DHT22;29836;52.286;9.576;2024-03-07T07:00:53;0.90;99.90
44170;DHT22;29836;52.286;9.576;2024-03-07T07:03:20;1.00;99.90
44170;DHT22;29836;52.286;9.576;2024-03-07T07:05:48;1.00;99.90
44170;DHT22;29836;52.286;9.576;2024-03-07T07:08:13;1.00;99.90
44170;DHT22;29836;52.286;9.576;2024-03-07T07:10:40;1.00;99.90
44170;DHT22;29836;52.286;9.576;2024-03-07T07:13:06;1.10;99.90
44170;DHT22;29836;52.286;9.576;2024-03-07T07:15:32;1.10;99.90
44170;DHT22;29836;52.286;9.576;2024-03-07T07:17:58;1.10;99.90
44170;DHT22;29836;52.286;9.576;2024-03-07T07:20:24;1.10;99.90
44170;DHT22;29836;52.286;9.576;2024-03-07T07:22:50;1.10;99.90
44170;DHT22;29836;52.286;9.576;2024-03-07T07:25:16;1.10;99.90
44170;DHT22;29836;52.286;9.576;2024-03-07T07:27:49;1.10;99.90
44170;DHT22;29836;52.286;9.576;2024-03-07T07:30:17;1.20;99.90
44170;DHT22;29836;52.286;9.576;2024-03-07T07:32:44;1.30;99.90
44170;DHT22;29836;52.286;9.576;2024-03-07T07:35:11;1.40;99.90
44170;DHT22;29836;52.286;9.576;2024-03-07T07:37:44;1.40;99.90
44170;DHT22;29836;52.286;9.576;2024-03-07T07:40:12;1.50;99.90
44170;DHT22;29836;52.286;9.576;2024-03-07T07:42:40;1.50;99.90
44170;DHT22;29836;52.286;9.576;2024-03-07T07:45:08;1.50;99.90
44170;DHT22;29836;52.286;9.576;2024-03-07T07:47:40;1.50;99.90
44170;DHT22;29836;52.286;9.576;2024-03-07T07:50:14;1.60;99.90
44170;DHT22;29836;52.286;9.576;2024-03-07T07:52:44;1.60;99.90
44170;DHT22;29836;52.286;9.576;2024-03-07T07:55:11;1.70;99.90
44170;DHT22;29836;52.286;9.576;2024-03-07T07:57:49;1.90;99.90
44170;DHT22;29836;52.286;9.576;2024-03-07T08:00:19;1.90;99.90
44170;DHT22;29836;52.286;9.576;2024-03-07T08:03:06;1.90;99.90
44170;DHT22;29836;52.286;9.576;2024-03-07T08:05:33;2.00;99.90
44170;DHT22;29836;52.286;9.576;2024-03-07T08:08:01;2.00;99.90
44170;DHT22;29836;52.286;9.576;2024-03-07T08:10:31;2.00;99.90
44170;DHT22;29836;52.286;9.576;2024-03-07T08:12:58;2.00;99.90
44170;DHT22;29836;52.286;9.576;2024-03-07T08:15:25;2.20;99.90
44170;DHT22;29836;52.286;9.576;2024-03-07T08:17:51;2.30;99.90
44170;DHT22;29836;52.286;9.576;2024-03-07T08:20:18;2.40;99.90
44170;DHT22;29836;52.286;9.576;2024-03-07T08:22:46;2.50;99.90
44170;DHT22;29836;52.286;9.576;2024-03-07T08:25:13;2.50;99.90
44170;DHT22;29836;52.286;9.576;2024-03-07T08:27:40;2.50;99.90
44170;DHT22;29836;52.286;9.576;2024-03-07T08:30:07;2.50;99.90
44170;DHT22;29836;52.286;9.576;2024-03-07T08:32:41;2.50;99.90
44170;DHT22;29836;52.286;9.576;2024-03-07T08:35:07;2.50;99.90
44170;DHT22;29836;52.286;9.576;2024-03-07T08:37:40;2.50;99.90
44170;DHT22;29836;52.286;9.576;2024-03-07T08:40:07;2.60;99.90
44170;DHT22;29836;52.286;9.576;2024-03-07T08:42:35;2.70;99.90
44170;DHT22;29836;52.286;9.576;2024-03-07T08:45:02;2.80;99.90
44170;DHT22;29836;52.286;9.576;2024-03-07T08:47:32;2.80;99.90
44170;DHT22;29836;52.286;9.576;2024-03-07T08:49:58;2.80;99.90
44170;DHT22;29836;52.286;9.576;2024-03-07T08:52:24;2.80;99.90
44170;DHT22;29836;52.286;9.576;2024-03-07T08:54:49;2.90;99.90
44170;DHT22;29836;52.286;9.576;2024-03-07T08:57:15;2.90;99.90
44170;DHT22;29836;52.286;9.576;2024-03-07T08:59:45;3.00;99.90
44170;DHT22;29836;52.286;9.576;2024-03-07T09:02:10;3.00;99.90
44170;DHT22;29836;52.286;9.576;2024-03-07T09:04:39;3.00;99.90
44170;DHT22;29836;52.286;9.576;2024-03-07T09:07:06;3.10;99.90
44170;DHT22;29836;52.286;9.576;2024-03-07T09:09:32;3.10;99.90
44170;DHT22;29836;52.286;9.576;2024-03-07T09:11:57;3.10;99.90
44170;DHT22;29836;52.286;9.576;2024-03-07T09:14:23;3.20;99.90
44170;DHT22;29836;52.286;9.576;2024-03-07T09:16:48;3.40;99.90
44170;DHT22;29836;52.286;9.576;2024-03-07T09:19:14;3.40;99.90
44170;DHT22;29836;52.286;9.576;2024-03-07T09:21:48;3.40;99.90
44170;DHT22;29836;52.286;9.576;2024-03-07T09:24:15;3.50;99.90
44170;DHT22;29836;52.286;9.576;2024-03-07T09:26:41;3.50;99.90
44170;DHT22;29836;52.286;9.576;2024-03-07T09:29:07;3.60;99.90
44170;DHT22;29836;52.286;9.576;2024-03-07T09:31:33;3.70;99.90
44170;DHT22;29836;52.286;9.576;2024-03-07T09:33:58;3.90;99.90
44170;DHT22;29836;52.286;9.576;2024-03-07T09:36:25;3.90;99.90
44170;DHT22;29836;52.286;9.576;2024-03-07T09:38:50;4.00;99.90
44170;DHT22;29836;52.286;9.576;2024-03-07T09:41:16;4.10;99.90
44170;DHT22;29836;52.286;9.576;2024-03-07T09:43:43;4.20;99.90
44170;DHT22;29836;52.286;9.576;2024-03-07T09:46:11;4.30;99.90
44170;DHT22;29836;52.286;9.576;2024-03-07T09:48:37;4.30;99.90
44170;DHT22;29836;52.286;9.576;2024-03-07T09:51:04;4.30;99.90
44170;DHT22;29836;52.286;9.576;2024-03-07T09:53:32;4.30;99.90
44170;DHT22;29836;52.286;9.576;2024-03-07T09:56:00;4.30;99.90
44170;DHT22;29836;52.286;9.576;2024-03-07T09:58:29;4.30;99.90
44170;DHT22;29836;52.286;9.576;2024-03-07T10:00:56;4.30;99.90
44170;DHT22;29836;52.286;9.576;2024-03-07T10:03:25;4.20;99.90
44170;DHT22;29836;52.286;9.576;2024-03-07T10:05:53;4.20;99.90
44170;DHT22;29836;52.286;9.576;2024-03-07T10:08:18;4.40;99.90
44170;DHT22;29836;52.286;9.576;2024-03-07T10:10:45;4.50;99.90
44170;DHT22;29836;52.286;9.576;2024-03-07T10:13:12;4.50;99.90
44170;DHT22;29836;52.286;9.576;2024-03-07T10:15:38;4.60;99.90
44170;DHT22;29836;52.286;9.576;2024-03-07T10:18:07;4.50;99.90
44170;DHT22;29836;52.286;9.576;2024-03-07T10:20:33;4.50;99.90
44170;DHT22;29836;52.286;9.576;2024-03-07T10:22:59;4.40;99.90
44170;DHT22;29836;52.286;9.576;2024-03-07T10:25:27;4.50;99.90
44170;DHT22;29836;52.286;9.576;2024-03-07T10:27:53;4.50;99.90
44170;DHT22;29836;52.286;9.576;2024-03-07T10:30:20;4.50;99.90
44170;DHT22;29836;52.286;9.576;2024-03-07T10:32:52;4.40;99.90
44170;DHT22;29836;52.286;9.576;2024-03-07T10:35:24;4.30;99.90
44170;DHT22;29836;52.286;9.576;2024-03-07T10:37:55;4.30;99.90
44170;DHT22;29836;52.286;9.576;2024-03-07T10:40:22;4.40;99.90
44170;DHT22;29836;52.286;9.576;2024-03-07T10:42:48;4.40;99.90
44170;DHT22;29836;52.286;9.576;2024-03-07T10:45:21;4.50;99.90
44170;DHT22;29836;52.286;9.576;2024-03-07T10:47:54;4.80;99.90
44170;DHT22;29836;52.286;9.576;2024-03-07T10:53:10;5.10;99.90
44170;DHT22;29836;52.286;9.576;2024-03-07T10:55:43;5.30;99.90
44170;DHT22;29836;52.286;9.576;2024-03-07T11:00:58;5.40;99.90
44170;DHT22;29836;52.286;9.576;2024-03-07T11:03:25;5.70;99.90
44170;DHT22;29836;52.286;9.576;2024-03-07T11:05:51;5.80;99.90
44170;DHT22;29836;52.286;9.576;2024-03-07T11:08:18;6.00;99.90
44170;DHT22;29836;52.286;9.576;2024-03-07T11:10:44;6.10;99.90
44170;DHT22;29836;52.286;9.576;2024-03-07T11:13:13;6.40;99.90
44170;DHT22;29836;52.286;9.576;2024-03-07T11:15:44;6.60;99.90
44170;DHT22;29836;52.286;9.576;2024-03-07T11:18:11;6.70;99.90
44170;DHT22;29836;52.286;9.576;2024-03-07T11:20:38;7.00;99.90
44170;DHT22;29836;52.286;9.576;2024-03-07T11:23:29;7.30;99.90
44170;DHT22;29836;52.286;9.576;2024-03-07T11:26:10;7.40;99.90
44170;DHT22;29836;52.286;9.576;2024-03-07T11:28:42;7.20;99.90
44170;DHT22;29836;52.286;9.576;2024-03-07T11:31:15;6.70;99.90
44170;DHT22;29836;52.286;9.576;2024-03-07T11:34:15;6.30;99.90
44170;DHT22;29836;52.286;9.576;2024-03-07T11:36:43;6.20;99.90
44170;DHT22;29836;52.286;9.576;2024-03-07T11:42:25;7.00;99.90
44170;DHT22;29836;52.286;9.576;2024-03-07T11:44:51;7.50;99.90
44170;DHT22;29836;52.286;9.576;2024-03-07T11:47:18;8.10;99.90
44170;DHT22;29836;52.286;9.576;2024-03-07T11:49:46;8.30;99.90
44170;DHT22;29836;52.286;9.576;2024-03-07T11:52:17;8.20;99.90
44170;DHT22;29836;52.286;9.576;2024-03-07T11:54:43;7.80;99.90
44170;DHT22;29836;52.286;9.576;2024-03-07T11:57:12;7.20;99.90
44170;DHT22;29836;52.286;9.576;2024-03-07T11:59:41;6.90;99.90
44170;DHT22;29836;52.286;9.576;2024-03-07T12:02:14;6.70;99.90
44170;DHT22;29836;52.286;9.576;2024-03-07T12:04:41;7.00;99.90
44170;DHT22;29836;52.286;9.576;2024-03-07T12:07:07;7.10;99.90
44170;DHT22;29836;52.286;9.576;2024-03-07T12:09:39;6.90;99.90
44170;DHT22;29836;52.286;9.576;2024-03-07T12:12:05;6.60;99.90
44170;DHT22;29836;52.286;9.576;2024-03-07T12:14:31;6.60;99.90
44170;DHT22;29836;52.286;9.576;2024-03-07T12:16:58;6.90;99.90
44170;DHT22;29836;52.286;9.576;2024-03-07T12:19:24;7.30;99.90
44170;DHT22;29836;52.286;9.576;2024-03-07T12:21:50;7.50;99.90
44170;DHT22;29836;52.286;9.576;2024-03-07T12:24:15;7.50;99.90
44170;DHT22;29836;52.286;9.576;2024-03-07T12:26:41;7.40;99.90
44170;DHT22;29836;52.286;9.576;2024-03-07T12:29:11;7.20;99.90
44170;DHT22;29836;52.286;9.576;2024-03-07T12:31:41;7.40;99.90
44170;DHT22;29836;52.286;9.576;2024-03-07T12:34:08;7.80;99.90
44170;DHT22;29836;52.286;9.576;2024-03-07T12:36:36;8.00;99.90
44170;DHT22;29836;52.286;9.576;2024-03-07T12:39:22;8.10;99.90
44170;DHT22;29836;52.286;9.576;2024-03-07T12:41:52;8.20;99.90
44170;DHT22;29836;52.286;9.576;2024-03-07T12:44:20;8.20;99.90
44170;DHT22;29836;52.286;9.576;2024-03-07T12:46:47;8.10;99.90
44170;DHT22;29836;52.286;9.576;2024-03-07T12:49:14;8.00;99.90
44170;DHT22;29836;52.286;9.576;2024-03-07T12:51:41;8.10;99.90
44170;DHT22;29836;52.286;9.576;2024-03-07T12:54:07;8.10;99.90
44170;DHT22;29836;52.286;9.576;2024-03-07T12:56:35;8.10;99.90
44170;DHT22;29836;52.286;9.576;2024-03-07T12:59:03;7.80;99.90
44170;DHT22;29836;52.286;9.576;2024-03-07T13:01:30;7.50;99.90
44170;DHT22;29836;52.286;9.576;2024-03-07T13:03:56;7.30;99.90
44170;DHT22;29836;52.286;9.576;2024-03-07T13:06:21;7.10;99.90
44170;DHT22;29836;52.286;9.576;2024-03-07T13:08:55;7.20;99.90
44170;DHT22;29836;52.286;9.576;2024-03-07T13:11:24;7.20;99.90
44170;DHT22;29836;52.286;9.576;2024-03-07T13:13:53;7.30;99.90
44170;DHT22;29836;52.286;9.576;2024-03-07T13:16:18;7.40;99.90
44170;DHT22;29836;52.286;9.576;2024-03-07T13:18:44;7.60;99.90
44170;DHT22;29836;52.286;9.576;2024-03-07T13:21:11;7.60;99.90
44170;DHT22;29836;52.286;9.576;2024-03-07T13:23:43;7.50;99.90
44170;DHT22;29836;52.286;9.576;2024-03-07T13:26:09;7.40;99.90
44170;DHT22;29836;52.286;9.576;2024-03-07T13:28:42;7.00;99.90
44170;DHT22;29836;52.286;9.576;2024-03-07T13:31:10;6.80;99.90
44170;DHT22;29836;52.286;9.576;2024-03-07T13:33:37;6.70;99.90
44170;DHT22;29836;52.286;9.576;2024-03-07T13:36:03;6.70;99.90
44170;DHT22;29836;52.286;9.576;2024-03-07T13:38:29;6.70;99.90
44170;DHT22;29836;52.286;9.576;2024-03-07T13:40:55;6.90;99.90
44170;DHT22;29836;52.286;9.576;2024-03-07T13:43:22;6.90;99.90
44170;DHT22;29836;52.286;9.576;2024-03-07T13:45:48;7.00;99.90
44170;DHT22;29836;52.286;9.576;2024-03-07T13:48:14;7.00;99.90
44170;DHT22;29836;52.286;9.576;2024-03-07T13:50:42;7.00;99.90
44170;DHT22;29836;52.286;9.576;2024-03-07T13:53:14;7.10;99.90
44170;DHT22;29836;52.286;9.576;2024-03-07T14:01:45;6.70;99.90
44170;DHT22;29836;52.286;9.576;2024-03-07T14:12:09;6.80;99.90
44170;DHT22;29836;52.286;9.576;2024-03-07T14:18:09;7.30;99.90
44170;DHT22;29836;52.286;9.576;2024-03-07T14:23:38;7.20;99.90
44170;DHT22;29836;52.286;9.576;2024-03-07T14:29:25;6.80;99.90
44170;DHT22;29836;52.286;9.576;2024-03-07T14:31:52;6.60;99.90
44170;DHT22;29836;52.286;9.576;2024-03-07T14:34:33;6.70;99.90
44170;DHT22;29836;52.286;9.576;2024-03-07T14:37:25;6.70;99.90
44170;DHT22;29836;52.286;9.576;2024-03-07T14:39:52;6.70;99.90
44170;DHT22;29836;52.286;9.576;2024-03-07T14:42:19;6.60;99.90
44170;DHT22;29836;52.286;9.576;2024-03-07T14:44:45;6.50;99.90
44170;DHT22;29836;52.286;9.576;2024-03-07T14:47:14;6.60;99.90
44170;DHT22;29836;52.286;9.576;2024-03-07T14:49:41;6.60;99.90
44170;DHT22;29836;52.286;9.576;2024-03-07T14:52:07;6.60;99.90
44170;DHT22;29836;52.286;9.576;2024-03-07T14:54:37;6.70;99.90
44170;DHT22;29836;52.286;9.576;2024-03-07T14:57:04;6.60;99.90
44170;DHT22;29836;52.286;9.576;2024-03-07T14:59:30;6.50;99.90
44170;DHT22;29836;52.286;9.576;2024-03-07T15:01:56;6.20;99.90
44170;DHT22;29836;52.286;9.576;2024-03-07T15:04:24;6.00;99.90
44170;DHT22;29836;52.286;9.576;2024-03-07T15:06:51;5.80;99.90
44170;DHT22;29836;52.286;9.576;2024-03-07T15:09:17;5.90;99.90
44170;DHT22;29836;52.286;9.576;2024-03-07T15:11:44;6.10;99.90
44170;DHT22;29836;52.286;9.576;2024-03-07T15:14:11;6.30;99.90
44170;DHT22;29836;52.286;9.576;2024-03-07T15:16:38;6.60;99.90
44170;DHT22;29836;52.286;9.576;2024-03-07T15:19:04;6.60;99.90
44170;DHT22;29836;52.286;9.576;2024-03-07T15:21:30;6.40;99.90
44170;DHT22;29836;52.286;9.576;2024-03-07T15:23:57;6.30;99.90
44170;DHT22;29836;52.286;9.576;2024-03-07T15:26:23;6.20;99.90
44170;DHT22;29836;52.286;9.576;2024-03-07T15:28:52;6.20;99.90
44170;DHT22;29836;52.286;9.576;2024-03-07T15:31:20;6.20;99.90
44170;DHT22;29836;52.286;9.576;2024-03-07T15:33:46;6.40;99.90
44170;DHT22;29836;52.286;9.576;2024-03-07T15:36:13;6.40;99.90
44170;DHT22;29836;52.286;9.576;2024-03-07T15:38:38;6.20;99.90
44170;DHT22;29836;52.286;9.576;2024-03-07T15:41:04;6.10;99.90
44170;DHT22;29836;52.286;9.576;2024-03-07T15:43:32;6.10;99.90
44170;DHT22;29836;52.286;9.576;2024-03-07T15:45:57;6.20;99.90
44170;DHT22;29836;52.286;9.576;2024-03-07T15:48:23;6.20;99.90
44170;DHT22;29836;52.286;9.576;2024-03-07T15:50:53;6.30;99.90
44170;DHT22;29836;52.286;9.576;2024-03-07T15:53:19;6.30;99.90
44170;DHT22;29836;52.286;9.576;2024-03-07T15:55:45;6.30;99.90
44170;DHT22;29836;52.286;9.576;2024-03-07T15:58:11;6.20;99.90
44170;DHT22;29836;52.286;9.576;2024-03-07T16:00:37;6.30;99.90
44170;DHT22;29836;52.286;9.576;2024-03-07T16:03:05;6.10;99.90
44170;DHT22;29836;52.286;9.576;2024-03-07T16:05:36;6.10;99.90
44170;DHT22;29836;52.286;9.576;2024-03-07T16:08:03;6.00;99.90
44170;DHT22;29836;52.286;9.576;2024-03-07T16:10:33;5.80;99.90
44170;DHT22;29836;52.286;9.576;2024-03-07T16:13:03;5.70;99.90
44170;DHT22;29836;52.286;9.576;2024-03-07T16:15:32;5.50;99.90